sensor_id;sensor_type;location;lat;lon;timestamp;P1;durP1;ratioP1;P2;durP2;ratioP2
19384;SDS011;9828;54.122;17.974;2023-11-19T00:03:08;55.03;;;31.00;;
19384;SDS011;9828;54.122;17.974;2023-11-19T00:08:29;58.67;;;34.40;;
19384;SDS011;9828;54.122;17.974;2023-11-19T00:13:50;47.67;;;30.77;;
19384;SDS011;9828;54.122;17.974;2023-11-19T00:19:11;42.77;;;27.40;;
19384;SDS011;9828;54.122;17.974;2023-11-19T00:24:33;43.50;;;27.57;;
19384;SDS011;9828;54.122;17.974;2023-11-19T00:29:55;39.37;;;23.90;;
19384;SDS011;9828;54.122;17.974;2023-11-19T00:35:17;36.97;;;22.00;;
19384;SDS011;9828;54.122;17.974;2023-11-19T00:40:38;36.73;;;21.87;;
19384;SDS011;9828;54.122;17.974;2023-11-19T00:45:59;36.30;;;20.47;;
19384;SDS011;9828;54.122;17.974;2023-11-19T00:51:21;31.80;;;20.17;;
19384;SDS011;9828;54.122;17.974;2023-11-19T00:56:42;39.97;;;22.40;;
19384;SDS011;9828;54.122;17.974;2023-11-19T01:02:04;30.63;;;19.00;;
19384;SDS011;9828;54.122;17.974;2023-11-19T01:07:26;34.37;;;22.50;;
19384;SDS011;9828;54.122;17.974;2023-11-19T01:12:47;38.33;;;24.40;;
19384;SDS011;9828;54.122;17.974;2023-11-19T01:18:09;35.03;;;21.93;;
19384;SDS011;9828;54.122;17.974;2023-11-19T01:23:31;36.97;;;22.07;;
19384;SDS011;9828;54.122;17.974;2023-11-19T01:28:52;33.03;;;20.30;;
19384;SDS011;9828;54.122;17.974;2023-11-19T01:34:14;33.00;;;21.00;;
19384;SDS011;9828;54.122;17.974;2023-11-19T01:39:35;39.03;;;23.97;;
19384;SDS011;9828;54.122;17.974;2023-11-19T01:52:09;32.93;;;21.87;;
19384;SDS011;9828;54.122;17.974;2023-11-19T01:57:30;34.47;;;21.27;;
19384;SDS011;9828;54.122;17.974;2023-11-19T02:02:52;37.63;;;21.80;;
19384;SDS011;9828;54.122;17.974;2023-11-19T02:08:13;37.37;;;21.27;;
19384;SDS011;9828;54.122;17.974;2023-11-19T02:13:36;33.50;;;22.10;;
19384;SDS011;9828;54.122;17.974;2023-11-19T02:18:59;36.60;;;21.90;;
19384;SDS011;9828;54.122;17.974;2023-11-19T02:24:22;37.70;;;22.30;;
19384;SDS011;9828;54.122;17.974;2023-11-19T02:29:46;34.97;;;20.83;;
19384;SDS011;9828;54.122;17.974;2023-11-19T02:41:26;32.87;;;20.33;;
19384;SDS011;9828;54.122;17.974;2023-11-19T02:46:47;32.67;;;19.47;;
19384;SDS011;9828;54.122;17.974;2023-11-19T02:52:09;33.03;;;21.03;;
19384;SDS011;9828;54.122;17.974;2023-11-19T02:57:31;35.73;;;21.87;;
19384;SDS011;9828;54.122;17.974;2023-11-19T03:02:53;31.33;;;18.57;;
19384;SDS011;9828;54.122;17.974;2023-11-19T03:08:20;32.63;;;18.67;;
19384;SDS011;9828;54.122;17.974;2023-11-19T03:13:42;27.37;;;18.30;;
19384;SDS011;9828;54.122;17.974;2023-11-19T03:19:04;32.20;;;18.63;;
19384;SDS011;9828;54.122;17.974;2023-11-19T03:24:27;24.97;;;17.37;;
19384;SDS011;9828;54.122;17.974;2023-11-19T03:29:48;26.03;;;17.47;;
19384;SDS011;9828;54.122;17.974;2023-11-19T03:35:09;29.53;;;18.40;;
19384;SDS011;9828;54.122;17.974;2023-11-19T03:40:32;26.93;;;18.40;;
19384;SDS011;9828;54.122;17.974;2023-11-19T03:45:53;28.63;;;17.57;;
19384;SDS011;9828;54.122;17.974;2023-11-19T03:51:15;26.97;;;17.67;;
19384;SDS011;9828;54.122;17.974;2023-11-19T03:56:36;29.37;;;18.47;;
19384;SDS011;9828;54.122;17.974;2023-11-19T04:01:57;25.40;;;17.17;;
19384;SDS011;9828;54.122;17.974;2023-11-19T04:07:21;24.50;;;16.00;;
19384;SDS011;9828;54.122;17.974;2023-11-19T04:12:42;25.43;;;15.27;;
19384;SDS011;9828;54.122;17.974;2023-11-19T04:18:04;26.40;;;16.10;;
19384;SDS011;9828;54.122;17.974;2023-11-19T04:23:25;22.33;;;14.60;;
19384;SDS011;9828;54.122;17.974;2023-11-19T04:28:46;27.80;;;15.80;;
19384;SDS011;9828;54.122;17.974;2023-11-19T04:34:13;24.93;;;16.80;;
19384;SDS011;9828;54.122;17.974;2023-11-19T04:39:34;27.17;;;15.63;;
19384;SDS011;9828;54.122;17.974;2023-11-19T04:44:55;25.23;;;15.00;;
19384;SDS011;9828;54.122;17.974;2023-11-19T04:50:16;26.83;;;16.80;;
19384;SDS011;9828;54.122;17.974;2023-11-19T04:55:38;22.13;;;14.67;;
19384;SDS011;9828;54.122;17.974;2023-11-19T05:00:59;22.63;;;14.87;;
19384;SDS011;9828;54.122;17.974;2023-11-19T05:06:20;22.57;;;14.97;;
19384;SDS011;9828;54.122;17.974;2023-11-19T05:11:42;18.87;;;13.77;;
19384;SDS011;9828;54.122;17.974;2023-11-19T05:17:06;21.00;;;14.30;;
19384;SDS011;9828;54.122;17.974;2023-11-19T05:22:28;19.93;;;13.33;;
19384;SDS011;9828;54.122;17.974;2023-11-19T05:27:49;19.47;;;13.57;;
19384;SDS011;9828;54.122;17.974;2023-11-19T05:33:10;20.43;;;13.07;;
19384;SDS011;9828;54.122;17.974;2023-11-19T05:38:32;19.47;;;14.13;;
19384;SDS011;9828;54.122;17.974;2023-11-19T05:43:54;23.03;;;12.87;;
19384;SDS011;9828;54.122;17.974;2023-11-19T05:49:15;20.87;;;13.23;;
19384;SDS011;9828;54.122;17.974;2023-11-19T05:54:36;21.13;;;13.57;;
19384;SDS011;9828;54.122;17.974;2023-11-19T05:59:58;21.13;;;14.00;;
19384;SDS011;9828;54.122;17.974;2023-11-19T06:05:19;21.03;;;13.33;;
19384;SDS011;9828;54.122;17.974;2023-11-19T06:10:41;25.90;;;15.53;;
19384;SDS011;9828;54.122;17.974;2023-11-19T06:16:03;27.03;;;16.63;;
19384;SDS011;9828;54.122;17.974;2023-11-19T06:21:24;18.73;;;12.57;;
19384;SDS011;9828;54.122;17.974;2023-11-19T06:26:45;25.80;;;15.30;;
19384;SDS011;9828;54.122;17.974;2023-11-19T06:32:06;21.47;;;13.07;;
19384;SDS011;9828;54.122;17.974;2023-11-19T06:37:31;24.20;;;16.80;;
19384;SDS011;9828;54.122;17.974;2023-11-19T06:42:52;16.77;;;10.83;;
19384;SDS011;9828;54.122;17.974;2023-11-19T06:48:15;19.17;;;13.17;;
19384;SDS011;9828;54.122;17.974;2023-11-19T06:53:36;20.27;;;12.93;;
19384;SDS011;9828;54.122;17.974;2023-11-19T06:58:56;21.57;;;12.57;;
19384;SDS011;9828;54.122;17.974;2023-11-19T07:04:18;21.17;;;11.70;;
19384;SDS011;9828;54.122;17.974;2023-11-19T07:09:39;21.73;;;13.20;;
19384;SDS011;9828;54.122;17.974;2023-11-19T07:15:00;17.87;;;11.77;;
19384;SDS011;9828;54.122;17.974;2023-11-19T07:20:22;16.70;;;11.37;;
19384;SDS011;9828;54.122;17.974;2023-11-19T07:25:43;20.93;;;12.63;;
19384;SDS011;9828;54.122;17.974;2023-11-19T07:31:07;23.77;;;15.33;;
19384;SDS011;9828;54.122;17.974;2023-11-19T07:36:31;27.70;;;15.57;;
19384;SDS011;9828;54.122;17.974;2023-11-19T07:41:52;25.90;;;15.80;;
19384;SDS011;9828;54.122;17.974;2023-11-19T07:47:13;25.90;;;17.23;;
19384;SDS011;9828;54.122;17.974;2023-11-19T07:52:35;28.40;;;16.63;;
19384;SDS011;9828;54.122;17.974;2023-11-19T07:57:56;19.97;;;14.30;;
19384;SDS011;9828;54.122;17.974;2023-11-19T08:03:16;24.30;;;14.50;;
19384;SDS011;9828;54.122;17.974;2023-11-19T08:08:39;23.57;;;15.37;;
19384;SDS011;9828;54.122;17.974;2023-11-19T08:14:00;22.33;;;14.43;;
19384;SDS011;9828;54.122;17.974;2023-11-19T08:19:21;24.07;;;15.47;;
19384;SDS011;9828;54.122;17.974;2023-11-19T08:24:42;22.77;;;14.73;;
19384;SDS011;9828;54.122;17.974;2023-11-19T08:30:05;26.63;;;16.87;;
19384;SDS011;9828;54.122;17.974;2023-11-19T08:35:26;29.77;;;18.50;;
19384;SDS011;9828;54.122;17.974;2023-11-19T08:40:48;27.43;;;17.77;;
19384;SDS011;9828;54.122;17.974;2023-11-19T08:46:09;28.07;;;18.53;;
19384;SDS011;9828;54.122;17.974;2023-11-19T08:51:31;24.13;;;16.60;;
19384;SDS011;9828;54.122;17.974;2023-11-19T08:56:52;28.60;;;17.33;;
19384;SDS011;9828;54.122;17.974;2023-11-19T09:02:14;26.27;;;17.70;;
19384;SDS011;9828;54.122;17.974;2023-11-19T09:07:35;24.87;;;16.43;;
19384;SDS011;9828;54.122;17.974;2023-11-19T09:12:55;26.90;;;16.90;;
19384;SDS011;9828;54.122;17.974;2023-11-19T09:18:17;25.17;;;17.97;;
19384;SDS011;9828;54.122;17.974;2023-11-19T09:23:39;25.03;;;15.97;;
19384;SDS011;9828;54.122;17.974;2023-11-19T09:29:00;24.17;;;16.30;;
19384;SDS011;9828;54.122;17.974;2023-11-19T09:34:22;24.67;;;16.27;;
19384;SDS011;9828;54.122;17.974;2023-11-19T09:39:43;22.47;;;15.97;;
19384;SDS011;9828;54.122;17.974;2023-11-19T09:45:05;26.03;;;15.97;;
19384;SDS011;9828;54.122;17.974;2023-11-19T09:50:33;32.23;;;18.23;;
19384;SDS011;9828;54.122;17.974;2023-11-19T09:55:55;27.10;;;16.10;;
19384;SDS011;9828;54.122;17.974;2023-11-19T10:01:16;27.73;;;16.43;;
19384;SDS011;9828;54.122;17.974;2023-11-19T10:06:39;33.10;;;19.77;;
19384;SDS011;9828;54.122;17.974;2023-11-19T10:12:00;32.33;;;18.23;;
19384;SDS011;9828;54.122;17.974;2023-11-19T10:17:22;28.60;;;18.40;;
19384;SDS011;9828;54.122;17.974;2023-11-19T10:22:54;33.37;;;19.83;;
19384;SDS011;9828;54.122;17.974;2023-11-19T10:28:16;36.03;;;23.30;;
19384;SDS011;9828;54.122;17.974;2023-11-19T10:33:37;32.53;;;19.23;;
19384;SDS011;9828;54.122;17.974;2023-11-19T10:38:58;29.70;;;19.30;;
19384;SDS011;9828;54.122;17.974;2023-11-19T10:44:32;37.30;;;22.20;;
19384;SDS011;9828;54.122;17.974;2023-11-19T10:49:56;44.33;;;23.33;;
19384;SDS011;9828;54.122;17.974;2023-11-19T10:55:17;49.27;;;27.30;;
19384;SDS011;9828;54.122;17.974;2023-11-19T11:06:13;39.17;;;23.10;;
19384;SDS011;9828;54.122;17.974;2023-11-19T11:11:35;36.93;;;23.10;;
19384;SDS011;9828;54.122;17.974;2023-11-19T11:16:56;39.93;;;22.63;;
19384;SDS011;9828;54.122;17.974;2023-11-19T11:22:18;38.30;;;22.07;;
19384;SDS011;9828;54.122;17.974;2023-11-19T11:38:43;41.27;;;24.30;;
19384;SDS011;9828;54.122;17.974;2023-11-19T11:44:05;41.97;;;23.23;;
19384;SDS011;9828;54.122;17.974;2023-11-19T11:49:26;43.23;;;23.83;;
19384;SDS011;9828;54.122;17.974;2023-11-19T11:54:50;43.93;;;24.33;;
19384;SDS011;9828;54.122;17.974;2023-11-19T12:00:12;41.63;;;24.63;;
19384;SDS011;9828;54.122;17.974;2023-11-19T12:05:44;44.80;;;26.03;;
19384;SDS011;9828;54.122;17.974;2023-11-19T12:11:06;49.97;;;29.20;;
19384;SDS011;9828;54.122;17.974;2023-11-19T12:16:29;49.80;;;29.57;;
19384;SDS011;9828;54.122;17.974;2023-11-19T12:21:51;54.00;;;30.23;;
19384;SDS011;9828;54.122;17.974;2023-11-19T12:27:14;52.20;;;28.53;;
19384;SDS011;9828;54.122;17.974;2023-11-19T12:32:45;52.37;;;28.93;;
19384;SDS011;9828;54.122;17.974;2023-11-19T12:38:07;50.03;;;28.73;;
19384;SDS011;9828;54.122;17.974;2023-11-19T12:43:28;56.10;;;29.03;;
19384;SDS011;9828;54.122;17.974;2023-11-19T12:48:49;50.83;;;28.27;;
19384;SDS011;9828;54.122;17.974;2023-11-19T12:54:11;52.03;;;29.00;;
19384;SDS011;9828;54.122;17.974;2023-11-19T12:59:33;56.60;;;29.03;;
19384;SDS011;9828;54.122;17.974;2023-11-19T13:04:55;52.20;;;29.93;;
19384;SDS011;9828;54.122;17.974;2023-11-19T13:10:17;49.50;;;29.57;;
19384;SDS011;9828;54.122;17.974;2023-11-19T13:15:38;48.80;;;28.73;;
19384;SDS011;9828;54.122;17.974;2023-11-19T13:21:00;53.63;;;29.90;;
19384;SDS011;9828;54.122;17.974;2023-11-19T13:26:21;51.37;;;29.33;;
19384;SDS011;9828;54.122;17.974;2023-11-19T13:31:43;52.70;;;29.07;;
19384;SDS011;9828;54.122;17.974;2023-11-19T13:37:04;50.23;;;29.47;;
19384;SDS011;9828;54.122;17.974;2023-11-19T13:42:25;54.30;;;30.43;;
19384;SDS011;9828;54.122;17.974;2023-11-19T13:47:48;58.93;;;31.57;;
19384;SDS011;9828;54.122;17.974;2023-11-19T13:53:09;59.60;;;31.70;;
19384;SDS011;9828;54.122;17.974;2023-11-19T13:58:30;55.23;;;29.73;;
19384;SDS011;9828;54.122;17.974;2023-11-19T14:03:51;53.47;;;27.70;;
19384;SDS011;9828;54.122;17.974;2023-11-19T14:09:13;52.80;;;28.60;;
19384;SDS011;9828;54.122;17.974;2023-11-19T14:14:35;50.80;;;28.33;;
19384;SDS011;9828;54.122;17.974;2023-11-19T14:19:57;64.73;;;34.63;;
19384;SDS011;9828;54.122;17.974;2023-11-19T14:25:18;52.13;;;28.50;;
19384;SDS011;9828;54.122;17.974;2023-11-19T14:30:39;61.70;;;31.43;;
19384;SDS011;9828;54.122;17.974;2023-11-19T14:36:02;48.23;;;29.13;;
19384;SDS011;9828;54.122;17.974;2023-11-19T14:41:23;46.53;;;27.17;;
19384;SDS011;9828;54.122;17.974;2023-11-19T14:46:45;43.37;;;25.90;;
19384;SDS011;9828;54.122;17.974;2023-11-19T14:52:06;41.10;;;25.37;;
19384;SDS011;9828;54.122;17.974;2023-11-19T14:57:30;44.73;;;24.93;;
19384;SDS011;9828;54.122;17.974;2023-11-19T15:02:51;39.57;;;24.40;;
19384;SDS011;9828;54.122;17.974;2023-11-19T15:08:12;42.23;;;24.30;;
19384;SDS011;9828;54.122;17.974;2023-11-19T15:13:34;47.67;;;26.70;;
19384;SDS011;9828;54.122;17.974;2023-11-19T15:18:58;42.80;;;24.57;;
19384;SDS011;9828;54.122;17.974;2023-11-19T15:24:20;44.57;;;26.07;;
19384;SDS011;9828;54.122;17.974;2023-11-19T15:29:41;42.70;;;23.90;;
19384;SDS011;9828;54.122;17.974;2023-11-19T15:35:02;46.00;;;24.97;;
19384;SDS011;9828;54.122;17.974;2023-11-19T15:40:24;39.50;;;23.47;;
19384;SDS011;9828;54.122;17.974;2023-11-19T15:45:45;41.63;;;23.27;;
19384;SDS011;9828;54.122;17.974;2023-11-19T15:51:06;44.33;;;25.20;;
19384;SDS011;9828;54.122;17.974;2023-11-19T15:56:27;43.30;;;24.47;;
19384;SDS011;9828;54.122;17.974;2023-11-19T16:01:51;42.07;;;23.63;;
19384;SDS011;9828;54.122;17.974;2023-11-19T16:07:12;38.27;;;22.70;;
19384;SDS011;9828;54.122;17.974;2023-11-19T16:12:33;39.27;;;22.70;;
19384;SDS011;9828;54.122;17.974;2023-11-19T16:17:54;42.27;;;24.00;;
19384;SDS011;9828;54.122;17.974;2023-11-19T16:23:18;39.67;;;22.93;;
19384;SDS011;9828;54.122;17.974;2023-11-19T16:28:39;40.07;;;22.13;;
19384;SDS011;9828;54.122;17.974;2023-11-19T16:34:02;38.40;;;21.33;;
19384;SDS011;9828;54.122;17.974;2023-11-19T16:39:25;35.80;;;22.13;;
19384;SDS011;9828;54.122;17.974;2023-11-19T16:44:46;34.20;;;20.67;;
19384;SDS011;9828;54.122;17.974;2023-11-19T16:50:08;36.77;;;22.07;;
19384;SDS011;9828;54.122;17.974;2023-11-19T16:55:29;44.10;;;26.53;;
19384;SDS011;9828;54.122;17.974;2023-11-19T17:00:51;36.17;;;23.53;;
19384;SDS011;9828;54.122;17.974;2023-11-19T17:06:12;38.67;;;22.17;;
19384;SDS011;9828;54.122;17.974;2023-11-19T17:11:35;35.33;;;21.93;;
19384;SDS011;9828;54.122;17.974;2023-11-19T17:16:56;39.27;;;24.27;;
19384;SDS011;9828;54.122;17.974;2023-11-19T17:22:18;35.87;;;20.73;;
19384;SDS011;9828;54.122;17.974;2023-11-19T17:27:39;33.67;;;20.93;;
19384;SDS011;9828;54.122;17.974;2023-11-19T17:33:01;38.13;;;21.47;;
19384;SDS011;9828;54.122;17.974;2023-11-19T17:38:25;36.17;;;19.80;;
19384;SDS011;9828;54.122;17.974;2023-11-19T17:43:47;35.90;;;20.67;;
19384;SDS011;9828;54.122;17.974;2023-11-19T17:49:09;35.47;;;19.83;;
19384;SDS011;9828;54.122;17.974;2023-11-19T17:54:30;32.07;;;20.67;;
19384;SDS011;9828;54.122;17.974;2023-11-19T17:59:52;33.43;;;18.47;;
19384;SDS011;9828;54.122;17.974;2023-11-19T18:05:14;38.83;;;21.57;;
19384;SDS011;9828;54.122;17.974;2023-11-19T18:10:41;35.50;;;21.03;;
19384;SDS011;9828;54.122;17.974;2023-11-19T18:16:02;35.20;;;22.50;;
19384;SDS011;9828;54.122;17.974;2023-11-19T18:21:25;35.97;;;21.53;;
19384;SDS011;9828;54.122;17.974;2023-11-19T18:26:46;37.27;;;22.93;;
19384;SDS011;9828;54.122;17.974;2023-11-19T18:32:08;34.70;;;20.67;;
19384;SDS011;9828;54.122;17.974;2023-11-19T18:37:30;36.53;;;21.13;;
19384;SDS011;9828;54.122;17.974;2023-11-19T18:42:51;35.63;;;21.60;;
19384;SDS011;9828;54.122;17.974;2023-11-19T18:48:13;38.10;;;22.83;;
19384;SDS011;9828;54.122;17.974;2023-11-19T18:53:35;32.67;;;20.93;;
19384;SDS011;9828;54.122;17.974;2023-11-19T18:58:56;34.30;;;20.70;;
19384;SDS011;9828;54.122;17.974;2023-11-19T19:04:18;36.00;;;21.40;;
19384;SDS011;9828;54.122;17.974;2023-11-19T19:09:39;37.57;;;23.30;;
19384;SDS011;9828;54.122;17.974;2023-11-19T19:15:01;42.07;;;23.23;;
19384;SDS011;9828;54.122;17.974;2023-11-19T19:20:25;35.20;;;21.53;;
19384;SDS011;9828;54.122;17.974;2023-11-19T19:25:46;33.07;;;21.60;;
19384;SDS011;9828;54.122;17.974;2023-11-19T19:31:07;39.70;;;22.17;;
19384;SDS011;9828;54.122;17.974;2023-11-19T19:36:28;39.37;;;22.27;;
19384;SDS011;9828;54.122;17.974;2023-11-19T19:41:51;37.07;;;22.57;;
19384;SDS011;9828;54.122;17.974;2023-11-19T19:47:13;39.60;;;23.77;;
19384;SDS011;9828;54.122;17.974;2023-11-19T19:52:34;38.77;;;24.37;;
19384;SDS011;9828;54.122;17.974;2023-11-19T19:57:58;35.63;;;21.50;;
19384;SDS011;9828;54.122;17.974;2023-11-19T20:03:19;36.23;;;22.47;;
19384;SDS011;9828;54.122;17.974;2023-11-19T20:08:41;35.50;;;22.83;;
19384;SDS011;9828;54.122;17.974;2023-11-19T20:14:02;38.00;;;22.27;;
19384;SDS011;9828;54.122;17.974;2023-11-19T20:19:24;35.00;;;22.33;;
19384;SDS011;9828;54.122;17.974;2023-11-19T20:24:45;40.73;;;24.17;;
19384;SDS011;9828;54.122;17.974;2023-11-19T20:30:07;39.37;;;23.20;;
19384;SDS011;9828;54.122;17.974;2023-11-19T20:35:28;36.00;;;22.47;;
19384;SDS011;9828;54.122;17.974;2023-11-19T20:40:49;34.13;;;22.13;;
19384;SDS011;9828;54.122;17.974;2023-11-19T20:46:11;34.33;;;20.90;;
19384;SDS011;9828;54.122;17.974;2023-11-19T20:51:32;35.00;;;22.63;;
19384;SDS011;9828;54.122;17.974;2023-11-19T20:56:57;35.27;;;20.87;;
19384;SDS011;9828;54.122;17.974;2023-11-19T21:02:19;34.93;;;21.50;;
19384;SDS011;9828;54.122;17.974;2023-11-19T21:07:41;37.13;;;21.77;;
19384;SDS011;9828;54.122;17.974;2023-11-19T21:13:02;36.67;;;23.23;;
19384;SDS011;9828;54.122;17.974;2023-11-19T21:18:24;37.57;;;23.37;;
19384;SDS011;9828;54.122;17.974;2023-11-19T21:23:45;39.80;;;23.93;;
19384;SDS011;9828;54.122;17.974;2023-11-19T21:29:06;34.73;;;20.97;;
19384;SDS011;9828;54.122;17.974;2023-11-19T21:34:27;36.53;;;23.80;;
19384;SDS011;9828;54.122;17.974;2023-11-19T21:39:49;47.70;;;26.17;;
19384;SDS011;9828;54.122;17.974;2023-11-19T21:45:10;47.27;;;26.10;;
19384;SDS011;9828;54.122;17.974;2023-11-19T21:50:32;38.67;;;24.67;;
19384;SDS011;9828;54.122;17.974;2023-11-19T21:55:53;39.90;;;24.93;;
19384;SDS011;9828;54.122;17.974;2023-11-19T22:01:31;40.17;;;25.57;;
19384;SDS011;9828;54.122;17.974;2023-11-19T22:06:52;35.20;;;23.30;;
19384;SDS011;9828;54.122;17.974;2023-11-19T22:12:14;39.70;;;23.43;;
19384;SDS011;9828;54.122;17.974;2023-11-19T22:17:35;38.33;;;23.83;;
19384;SDS011;9828;54.122;17.974;2023-11-19T22:22:57;34.03;;;21.63;;
19384;SDS011;9828;54.122;17.974;2023-11-19T22:28:19;33.47;;;21.47;;
19384;SDS011;9828;54.122;17.974;2023-11-19T22:33:40;35.47;;;21.60;;
19384;SDS011;9828;54.122;17.974;2023-11-19T22:39:01;35.07;;;21.40;;
19384;SDS011;9828;54.122;17.974;2023-11-19T22:44:23;35.67;;;20.33;;
19384;SDS011;9828;54.122;17.974;2023-11-19T22:49:45;31.73;;;19.87;;
19384;SDS011;9828;54.122;17.974;2023-11-19T22:55:06;28.57;;;18.97;;
19384;SDS011;9828;54.122;17.974;2023-11-19T23:00:27;32.43;;;19.47;;
19384;SDS011;9828;54.122;17.974;2023-11-19T23:05:49;29.43;;;19.67;;
19384;SDS011;9828;54.122;17.974;2023-11-19T23:11:09;32.37;;;20.20;;
19384;SDS011;9828;54.122;17.974;2023-11-19T23:16:31;30.63;;;18.37;;
19384;SDS011;9828;54.122;17.974;2023-11-19T23:21:52;29.80;;;18.77;;
19384;SDS011;9828;54.122;17.974;2023-11-19T23:27:14;28.30;;;18.63;;
19384;SDS011;9828;54.122;17.974;2023-11-19T23:32:36;28.30;;;17.57;;
19384;SDS011;9828;54.122;17.974;2023-11-19T23:37:58;30.10;;;17.33;;
19384;SDS011;9828;54.122;17.974;2023-11-19T23:43:19;25.73;;;17.13;;
19384;SDS011;9828;54.122;17.974;2023-11-19T23:48:40;25.17;;;16.77;;
19384;SDS011;9828;54.122;17.974;2023-11-19T23:54:04;26.93;;;16.57;;
19384;SDS011;9828;54.122;17.974;2023-11-19T23:59:25;23.37;;;15.57;;
